Terminal Aerodrome Forecast
Issued by NWS

Home | Current Version | Previous Version | Text Only | Print | Product List | Glossary On
Versions: 1 2 3 4 5 6 7 8 9 10 11 12 13 14 15 16 17 18 19 20 21 22 23 24 25 26 27 28 29 30 31 32 33 34 35 36 37 38 39 40 41 42 43 44 45 46 47 48 49 50
494
FTUS45 KBOI 210306 AAD
TAFBKE
TAF AMD
KBKE 210306Z 2103/2124 11012KT P6SM VCSH SCT020 OVC070
     FM210600 11006KT 4SM -SN BR SCT020 OVC040
     FM211000 VRB06KT P6SM VCSH SCT025 BKN050 PROB30 2118/2124 3SM
      -SHSN OVC025=

USA.gov is the U.S. government's official web portal to all federal, state and local government web resources and services.